sensor_id;sensor_type;location;lat;lon;timestamp;pressure;altitude;pressure_sealevel;temperature;humidity
75460;BME280;64039;53.060;9.342;2023-04-03T00:00:37;102869.44;;;0.49;100.00
75460;BME280;64039;53.060;9.342;2023-04-03T00:03:03;102875.13;;;0.55;100.00
75460;BME280;64039;53.060;9.342;2023-04-03T00:05:28;102869.56;;;0.50;100.00
75460;BME280;64039;53.060;9.342;2023-04-03T00:07:54;102872.75;;;0.47;100.00
75460;BME280;64039;53.060;9.342;2023-04-03T00:10:20;102882.53;;;0.43;100.00
75460;BME280;64039;53.060;9.342;2023-04-03T00:12:45;102883.13;;;0.49;100.00
75460;BME280;64039;53.060;9.342;2023-04-03T00:15:11;102884.63;;;0.47;100.00
75460;BME280;64039;53.060;9.342;2023-04-03T00:17:36;102884.50;;;0.45;100.00
75460;BME280;64039;53.060;9.342;2023-04-03T00:20:03;102883.34;;;0.33;100.00
75460;BME280;64039;53.060;9.342;2023-04-03T00:22:28;102880.47;;;0.30;100.00
75460;BME280;64039;53.060;9.342;2023-04-03T00:24:54;102873.84;;;0.32;100.00
75460;BME280;64039;53.060;9.342;2023-04-03T00:27:20;102890.97;;;0.42;100.00
75460;BME280;64039;53.060;9.342;2023-04-03T00:29:45;102889.19;;;0.41;100.00
75460;BME280;64039;53.060;9.342;2023-04-03T00:32:11;102882.84;;;0.46;100.00
75460;BME280;64039;53.060;9.342;2023-04-03T00:34:36;102889.31;;;0.42;100.00
75460;BME280;64039;53.060;9.342;2023-04-03T00:37:01;102897.91;;;0.43;100.00
75460;BME280;64039;53.060;9.342;2023-04-03T00:39:27;102887.38;;;0.40;100.00
75460;BME280;64039;53.060;9.342;2023-04-03T00:41:53;102902.59;;;0.29;100.00
75460;BME280;64039;53.060;9.342;2023-04-03T00:46:59;102895.25;;;0.24;100.00
75460;BME280;64039;53.060;9.342;2023-04-03T00:49:26;102895.56;;;0.18;100.00
75460;BME280;64039;53.060;9.342;2023-04-03T00:51:51;102891.97;;;0.07;100.00
75460;BME280;64039;53.060;9.342;2023-04-03T00:54:17;102896.03;;;0.05;100.00
75460;BME280;64039;53.060;9.342;2023-04-03T00:56:44;102896.78;;;0.04;100.00
75460;BME280;64039;53.060;9.342;2023-04-03T00:59:13;102901.75;;;0.03;100.00
75460;BME280;64039;53.060;9.342;2023-04-03T01:01:40;102903.13;;;-0.01;100.00
75460;BME280;64039;53.060;9.342;2023-04-03T01:04:23;102901.59;;;0.10;100.00
75460;BME280;64039;53.060;9.342;2023-04-03T01:06:52;102903.25;;;0.01;100.00
75460;BME280;64039;53.060;9.342;2023-04-03T01:09:17;102911.69;;;-0.01;100.00
75460;BME280;64039;53.060;9.342;2023-04-03T01:11:43;102908.66;;;-0.05;100.00
75460;BME280;64039;53.060;9.342;2023-04-03T01:14:09;102900.09;;;-0.06;100.00
75460;BME280;64039;53.060;9.342;2023-04-03T01:16:35;102908.34;;;-0.08;100.00
75460;BME280;64039;53.060;9.342;2023-04-03T01:19:01;102908.53;;;-0.24;100.00
75460;BME280;64039;53.060;9.342;2023-04-03T01:26:53;102902.66;;;-0.06;100.00
75460;BME280;64039;53.060;9.342;2023-04-03T01:29:19;102903.38;;;-0.16;100.00
75460;BME280;64039;53.060;9.342;2023-04-03T01:31:55;102912.13;;;-0.13;100.00
75460;BME280;64039;53.060;9.342;2023-04-03T01:34:21;102910.19;;;-0.16;100.00
75460;BME280;64039;53.060;9.342;2023-04-03T01:36:47;102916.03;;;-0.17;100.00
75460;BME280;64039;53.060;9.342;2023-04-03T01:39:13;102915.63;;;-0.13;100.00
75460;BME280;64039;53.060;9.342;2023-04-03T01:41:38;102910.63;;;-0.11;100.00
75460;BME280;64039;53.060;9.342;2023-04-03T01:44:04;102908.84;;;-0.21;100.00
75460;BME280;64039;53.060;9.342;2023-04-03T01:46:30;102907.78;;;-0.23;100.00
75460;BME280;64039;53.060;9.342;2023-04-03T01:48:55;102920.84;;;-0.20;100.00
75460;BME280;64039;53.060;9.342;2023-04-03T01:51:21;102920.09;;;-0.19;100.00
75460;BME280;64039;53.060;9.342;2023-04-03T01:53:46;102911.69;;;-0.27;100.00
75460;BME280;64039;53.060;9.342;2023-04-03T01:56:12;102919.97;;;-0.21;100.00
75460;BME280;64039;53.060;9.342;2023-04-03T01:58:37;102920.72;;;-0.22;100.00
75460;BME280;64039;53.060;9.342;2023-04-03T02:01:03;102931.25;;;-0.19;100.00
75460;BME280;64039;53.060;9.342;2023-04-03T02:03:29;102933.50;;;-0.30;100.00
75460;BME280;64039;53.060;9.342;2023-04-03T02:05:54;102929.91;;;-0.33;100.00
75460;BME280;64039;53.060;9.342;2023-04-03T02:08:20;102932.75;;;-0.38;100.00
75460;BME280;64039;53.060;9.342;2023-04-03T02:10:50;102932.00;;;-0.28;100.00
75460;BME280;64039;53.060;9.342;2023-04-03T02:13:16;102936.06;;;-0.30;100.00
75460;BME280;64039;53.060;9.342;2023-04-03T02:15:42;102934.13;;;-0.24;100.00
75460;BME280;64039;53.060;9.342;2023-04-03T02:18:07;102941.03;;;-0.23;100.00
75460;BME280;64039;53.060;9.342;2023-04-03T02:20:33;102941.19;;;-0.22;100.00
75460;BME280;64039;53.060;9.342;2023-04-03T02:22:59;102946.16;;;-0.23;100.00
75460;BME280;64039;53.060;9.342;2023-04-03T02:25:24;102942.09;;;-0.30;100.00
75460;BME280;64039;53.060;9.342;2023-04-03T02:27:50;102936.06;;;-0.22;100.00
75460;BME280;64039;53.060;9.342;2023-04-03T02:30:15;102943.00;;;-0.21;100.00
75460;BME280;64039;53.060;9.342;2023-04-03T02:32:42;102941.78;;;-0.24;100.00
75460;BME280;64039;53.060;9.342;2023-04-03T02:35:09;102951.28;;;-0.23;100.00
75460;BME280;64039;53.060;9.342;2023-04-03T02:37:34;102948.25;;;-0.28;100.00
75460;BME280;64039;53.060;9.342;2023-04-03T02:40:00;102940.09;;;-0.41;100.00
75460;BME280;64039;53.060;9.342;2023-04-03T02:42:25;102942.06;;;-0.48;100.00
75460;BME280;64039;53.060;9.342;2023-04-03T02:44:52;102943.88;;;-0.46;100.00
75460;BME280;64039;53.060;9.342;2023-04-03T02:47:17;102946.69;;;-0.61;100.00
75460;BME280;64039;53.060;9.342;2023-04-03T02:49:43;102943.41;;;-0.60;100.00
75460;BME280;64039;53.060;9.342;2023-04-03T02:52:12;102946.97;;;-0.67;100.00
75460;BME280;64039;53.060;9.342;2023-04-03T02:54:38;102941.84;;;-0.67;100.00
75460;BME280;64039;53.060;9.342;2023-04-03T02:57:03;102951.34;;;-0.57;100.00
75460;BME280;64039;53.060;9.342;2023-04-03T02:59:29;102950.88;;;-0.61;100.00
75460;BME280;64039;53.060;9.342;2023-04-03T03:01:54;102945.34;;;-0.57;100.00
75460;BME280;64039;53.060;9.342;2023-04-03T03:04:21;102941.13;;;-0.66;100.00
75460;BME280;64039;53.060;9.342;2023-04-03T03:06:46;102941.94;;;-0.83;100.00
75460;BME280;64039;53.060;9.342;2023-04-03T03:09:12;102934.75;;;-0.78;100.00
75460;BME280;64039;53.060;9.342;2023-04-03T03:11:38;102937.16;;;-0.80;100.00
75460;BME280;64039;53.060;9.342;2023-04-03T03:14:04;102935.00;;;-0.84;100.00
75460;BME280;64039;53.060;9.342;2023-04-03T03:16:29;102938.66;;;-0.82;100.00
75460;BME280;64039;53.060;9.342;2023-04-03T03:18:55;102938.03;;;-0.79;100.00
75460;BME280;64039;53.060;9.342;2023-04-03T03:21:20;102940.31;;;-0.82;100.00
75460;BME280;64039;53.060;9.342;2023-04-03T03:23:46;102935.94;;;-0.83;100.00
75460;BME280;64039;53.060;9.342;2023-04-03T03:26:11;102935.06;;;-0.75;100.00
75460;BME280;64039;53.060;9.342;2023-04-03T03:28:38;102939.09;;;-0.86;100.00
75460;BME280;64039;53.060;9.342;2023-04-03T03:31:04;102935.47;;;-0.97;100.00
75460;BME280;64039;53.060;9.342;2023-04-03T03:33:29;102939.66;;;-0.97;100.00
75460;BME280;64039;53.060;9.342;2023-04-03T03:35:55;102940.84;;;-0.93;100.00
75460;BME280;64039;53.060;9.342;2023-04-03T03:38:21;102949.75;;;-0.90;100.00
75460;BME280;64039;53.060;9.342;2023-04-03T03:40:47;102948.84;;;-0.90;100.00
75460;BME280;64039;53.060;9.342;2023-04-03T03:43:14;102944.63;;;-0.99;100.00
75460;BME280;64039;53.060;9.342;2023-04-03T03:45:40;102944.34;;;-0.93;100.00
75460;BME280;64039;53.060;9.342;2023-04-03T03:48:05;102942.00;;;-1.07;100.00
75460;BME280;64039;53.060;9.342;2023-04-03T03:50:31;102950.63;;;-0.98;100.00
75460;BME280;64039;53.060;9.342;2023-04-03T03:52:57;102947.91;;;-1.00;100.00
75460;BME280;64039;53.060;9.342;2023-04-03T03:55:22;102949.44;;;-0.93;100.00
75460;BME280;64039;53.060;9.342;2023-04-03T03:57:47;102953.63;;;-1.02;100.00
75460;BME280;64039;53.060;9.342;2023-04-03T04:00:13;102954.50;;;-1.02;100.00
75460;BME280;64039;53.060;9.342;2023-04-03T04:02:39;102958.88;;;-1.01;100.00
75460;BME280;64039;53.060;9.342;2023-04-03T04:05:04;102961.56;;;-0.99;100.00
75460;BME280;64039;53.060;9.342;2023-04-03T04:07:30;102954.97;;;-1.06;100.00
75460;BME280;64039;53.060;9.342;2023-04-03T04:09:55;102955.09;;;-1.04;100.00
75460;BME280;64039;53.060;9.342;2023-04-03T04:12:21;102961.78;;;-1.22;100.00
75460;BME280;64039;53.060;9.342;2023-04-03T04:14:46;102965.72;;;-1.17;100.00
75460;BME280;64039;53.060;9.342;2023-04-03T04:17:13;102959.66;;;-1.27;100.00
75460;BME280;64039;53.060;9.342;2023-04-03T04:19:38;102960.56;;;-1.26;100.00
75460;BME280;64039;53.060;9.342;2023-04-03T04:22:04;102967.47;;;-1.25;100.00
75460;BME280;64039;53.060;9.342;2023-04-03T04:24:29;102965.38;;;-1.20;100.00
75460;BME280;64039;53.060;9.342;2023-04-03T04:26:55;102974.72;;;-1.21;100.00
75460;BME280;64039;53.060;9.342;2023-04-03T04:29:20;102969.81;;;-1.11;100.00
75460;BME280;64039;53.060;9.342;2023-04-03T04:31:46;102967.53;;;-1.16;100.00
75460;BME280;64039;53.060;9.342;2023-04-03T04:34:11;102970.22;;;-1.15;100.00
75460;BME280;64039;53.060;9.342;2023-04-03T04:36:38;102974.88;;;-1.19;100.00
75460;BME280;64039;53.060;9.342;2023-04-03T04:39:04;102979.81;;;-1.21;100.00
75460;BME280;64039;53.060;9.342;2023-04-03T04:41:31;102987.91;;;-1.25;100.00
75460;BME280;64039;53.060;9.342;2023-04-03T04:43:57;102990.47;;;-1.25;100.00
75460;BME280;64039;53.060;9.342;2023-04-03T04:46:24;102991.91;;;-1.36;100.00
75460;BME280;64039;53.060;9.342;2023-04-03T04:48:49;102996.63;;;-1.48;100.00
75460;BME280;64039;53.060;9.342;2023-04-03T04:51:15;102990.94;;;-1.45;100.00
75460;BME280;64039;53.060;9.342;2023-04-03T04:53:41;102998.47;;;-1.63;100.00
75460;BME280;64039;53.060;9.342;2023-04-03T04:56:08;103000.94;;;-1.55;100.00
75460;BME280;64039;53.060;9.342;2023-04-03T04:58:33;103004.25;;;-1.56;100.00
75460;BME280;64039;53.060;9.342;2023-04-03T05:01:07;102999.63;;;-1.52;100.00
75460;BME280;64039;53.060;9.342;2023-04-03T05:03:32;102997.72;;;-1.62;100.00
75460;BME280;64039;53.060;9.342;2023-04-03T05:05:58;102996.03;;;-1.45;100.00
75460;BME280;64039;53.060;9.342;2023-04-03T05:08:24;103006.94;;;-1.39;100.00
75460;BME280;64039;53.060;9.342;2023-04-03T05:10:50;103001.16;;;-1.45;100.00
75460;BME280;64039;53.060;9.342;2023-04-03T05:13:16;103007.06;;;-1.37;100.00
75460;BME280;64039;53.060;9.342;2023-04-03T05:15:41;103001.34;;;-1.44;100.00
75460;BME280;64039;53.060;9.342;2023-04-03T05:18:06;103008.22;;;-1.43;100.00
75460;BME280;64039;53.060;9.342;2023-04-03T05:20:33;103009.56;;;-1.46;100.00
75460;BME280;64039;53.060;9.342;2023-04-03T05:22:59;103010.25;;;-1.56;100.00
75460;BME280;64039;53.060;9.342;2023-04-03T05:25:24;103015.00;;;-1.59;100.00
75460;BME280;64039;53.060;9.342;2023-04-03T05:27:50;103013.22;;;-1.60;100.00
75460;BME280;64039;53.060;9.342;2023-04-03T05:30:16;103008.03;;;-1.69;100.00
75460;BME280;64039;53.060;9.342;2023-04-03T05:32:41;103016.19;;;-1.80;100.00
75460;BME280;64039;53.060;9.342;2023-04-03T05:35:08;103011.22;;;-1.63;100.00
75460;BME280;64039;53.060;9.342;2023-04-03T05:37:34;103014.22;;;-1.67;100.00
75460;BME280;64039;53.060;9.342;2023-04-03T05:39:59;103021.19;;;-1.57;100.00
75460;BME280;64039;53.060;9.342;2023-04-03T05:42:25;103014.38;;;-1.65;100.00
75460;BME280;64039;53.060;9.342;2023-04-03T05:44:50;103017.66;;;-1.50;100.00
75460;BME280;64039;53.060;9.342;2023-04-03T05:47:17;103020.84;;;-1.44;100.00
75460;BME280;64039;53.060;9.342;2023-04-03T05:49:42;103020.16;;;-1.34;100.00
75460;BME280;64039;53.060;9.342;2023-04-03T05:52:20;103028.25;;;-1.38;100.00
75460;BME280;64039;53.060;9.342;2023-04-03T05:54:46;103034.50;;;-1.28;100.00
75460;BME280;64039;53.060;9.342;2023-04-03T05:57:14;103027.91;;;-1.25;100.00
75460;BME280;64039;53.060;9.342;2023-04-03T05:59:42;103039.31;;;-1.06;100.00
75460;BME280;64039;53.060;9.342;2023-04-03T06:02:10;103042.28;;;-1.10;100.00
75460;BME280;64039;53.060;9.342;2023-04-03T06:04:36;103037.25;;;-0.92;100.00
75460;BME280;64039;53.060;9.342;2023-04-03T06:07:02;103044.78;;;-0.94;100.00
75460;BME280;64039;53.060;9.342;2023-04-03T06:09:28;103053.13;;;-0.79;100.00
75460;BME280;64039;53.060;9.342;2023-04-03T06:11:57;103044.34;;;-0.90;100.00
75460;BME280;64039;53.060;9.342;2023-04-03T06:14:25;103053.34;;;-0.93;100.00
75460;BME280;64039;53.060;9.342;2023-04-03T06:16:51;103048.22;;;-0.69;100.00
75460;BME280;64039;53.060;9.342;2023-04-03T06:19:17;103049.00;;;-0.61;100.00
75460;BME280;64039;53.060;9.342;2023-04-03T06:21:42;103059.88;;;-0.55;100.00
75460;BME280;64039;53.060;9.342;2023-04-03T06:24:08;103055.22;;;-0.50;100.00
75460;BME280;64039;53.060;9.342;2023-04-03T06:26:34;103054.59;;;-0.56;100.00
75460;BME280;64039;53.060;9.342;2023-04-03T06:29:00;103053.88;;;-0.46;100.00
75460;BME280;64039;53.060;9.342;2023-04-03T06:31:25;103051.78;;;-0.42;100.00
75460;BME280;64039;53.060;9.342;2023-04-03T06:33:51;103053.59;;;-0.41;100.00
75460;BME280;64039;53.060;9.342;2023-04-03T06:36:19;103050.13;;;-0.41;100.00
75460;BME280;64039;53.060;9.342;2023-04-03T06:38:46;103050.81;;;-0.18;100.00
75460;BME280;64039;53.060;9.342;2023-04-03T06:41:11;103053.06;;;-0.12;100.00
75460;BME280;64039;53.060;9.342;2023-04-03T06:43:37;103056.59;;;0.06;100.00
75460;BME280;64039;53.060;9.342;2023-04-03T06:46:03;103054.34;;;0.18;100.00
75460;BME280;64039;53.060;9.342;2023-04-03T06:48:28;103056.63;;;0.24;100.00
75460;BME280;64039;53.060;9.342;2023-04-03T06:50:55;103068.97;;;0.37;100.00
75460;BME280;64039;53.060;9.342;2023-04-03T06:53:20;103060.53;;;0.55;100.00
75460;BME280;64039;53.060;9.342;2023-04-03T06:55:47;103069.88;;;0.63;100.00
75460;BME280;64039;53.060;9.342;2023-04-03T06:58:12;103071.38;;;0.70;100.00
75460;BME280;64039;53.060;9.342;2023-04-03T07:00:39;103073.03;;;0.87;100.00
75460;BME280;64039;53.060;9.342;2023-04-03T07:03:04;103073.59;;;1.02;100.00
75460;BME280;64039;53.060;9.342;2023-04-03T07:05:30;103083.41;;;1.06;100.00
75460;BME280;64039;53.060;9.342;2023-04-03T07:07:55;103079.47;;;1.10;100.00
75460;BME280;64039;53.060;9.342;2023-04-03T07:10:21;103077.31;;;1.23;100.00
75460;BME280;64039;53.060;9.342;2023-04-03T07:12:46;103087.41;;;1.39;100.00
75460;BME280;64039;53.060;9.342;2023-04-03T07:15:12;103090.84;;;1.40;100.00
75460;BME280;64039;53.060;9.342;2023-04-03T07:17:38;103085.09;;;1.51;100.00
75460;BME280;64039;53.060;9.342;2023-04-03T07:20:04;103087.78;;;1.62;100.00
75460;BME280;64039;53.060;9.342;2023-04-03T07:22:30;103095.59;;;1.72;99.88
75460;BME280;64039;53.060;9.342;2023-04-03T07:24:56;103095.81;;;1.84;99.25
75460;BME280;64039;53.060;9.342;2023-04-03T07:27:21;103088.50;;;1.97;97.74
75460;BME280;64039;53.060;9.342;2023-04-03T07:29:47;103094.28;;;2.14;98.14
75460;BME280;64039;53.060;9.342;2023-04-03T07:32:14;103094.16;;;2.12;97.21
75460;BME280;64039;53.060;9.342;2023-04-03T07:34:40;103090.88;;;2.24;96.16
75460;BME280;64039;53.060;9.342;2023-04-03T07:37:06;103091.72;;;2.33;94.38
75460;BME280;64039;53.060;9.342;2023-04-03T07:39:32;103096.53;;;2.39;93.77
75460;BME280;64039;53.060;9.342;2023-04-03T07:41:58;103095.09;;;2.51;92.88
75460;BME280;64039;53.060;9.342;2023-04-03T07:44:23;103102.47;;;2.76;93.78
75460;BME280;64039;53.060;9.342;2023-04-03T07:46:49;103089.03;;;2.89;92.09
75460;BME280;64039;53.060;9.342;2023-04-03T07:49:16;103092.25;;;2.96;89.78
75460;BME280;64039;53.060;9.342;2023-04-03T07:51:43;103098.22;;;3.06;89.67
75460;BME280;64039;53.060;9.342;2023-04-03T07:54:09;103102.47;;;3.05;86.78
75460;BME280;64039;53.060;9.342;2023-04-03T07:56:34;103100.94;;;3.07;86.02
75460;BME280;64039;53.060;9.342;2023-04-03T07:59:00;103095.59;;;3.25;87.07
75460;BME280;64039;53.060;9.342;2023-04-03T08:01:25;103094.59;;;3.33;82.83
75460;BME280;64039;53.060;9.342;2023-04-03T08:03:51;103096.16;;;3.31;82.83
75460;BME280;64039;53.060;9.342;2023-04-03T08:06:16;103093.22;;;3.47;81.81
75460;BME280;64039;53.060;9.342;2023-04-03T08:08:42;103080.50;;;3.59;79.58
75460;BME280;64039;53.060;9.342;2023-04-03T08:11:07;103085.56;;;3.68;79.40
75460;BME280;64039;53.060;9.342;2023-04-03T08:13:33;103083.75;;;3.67;78.16
75460;BME280;64039;53.060;9.342;2023-04-03T08:16:08;103084.16;;;3.71;76.60
75460;BME280;64039;53.060;9.342;2023-04-03T08:18:34;103087.63;;;3.72;73.66
75460;BME280;64039;53.060;9.342;2023-04-03T08:20:59;103086.97;;;3.74;72.27
75460;BME280;64039;53.060;9.342;2023-04-03T08:23:25;103091.78;;;3.90;73.88
75460;BME280;64039;53.060;9.342;2023-04-03T08:25:51;103088.84;;;4.06;74.75
75460;BME280;64039;53.060;9.342;2023-04-03T08:28:17;103085.72;;;4.11;71.12
75460;BME280;64039;53.060;9.342;2023-04-03T08:30:42;103080.31;;;4.18;72.25
75460;BME280;64039;53.060;9.342;2023-04-03T08:33:08;103089.31;;;4.33;68.35
75460;BME280;64039;53.060;9.342;2023-04-03T08:35:41;103081.59;;;4.44;68.75
75460;BME280;64039;53.060;9.342;2023-04-03T08:38:07;103080.03;;;4.56;68.06
75460;BME280;64039;53.060;9.342;2023-04-03T08:40:32;103080.41;;;4.61;67.30
75460;BME280;64039;53.060;9.342;2023-04-03T08:43:21;103086.06;;;4.67;66.74
75460;BME280;64039;53.060;9.342;2023-04-03T08:45:53;103081.03;;;4.68;65.57
75460;BME280;64039;53.060;9.342;2023-04-03T08:48:27;103072.72;;;4.83;63.58
75460;BME280;64039;53.060;9.342;2023-04-03T08:51:02;103069.88;;;4.90;64.19
75460;BME280;64039;53.060;9.342;2023-04-03T08:53:33;103071.16;;;4.85;66.09
75460;BME280;64039;53.060;9.342;2023-04-03T08:56:05;103063.34;;;4.73;59.78
75460;BME280;64039;53.060;9.342;2023-04-03T08:58:33;103064.38;;;4.75;60.45
75460;BME280;64039;53.060;9.342;2023-04-03T09:01:17;103059.81;;;4.83;62.59
75460;BME280;64039;53.060;9.342;2023-04-03T09:03:44;103061.59;;;4.94;62.83
75460;BME280;64039;53.060;9.342;2023-04-03T09:06:31;103065.03;;;5.05;59.13
75460;BME280;64039;53.060;9.342;2023-04-03T09:09:15;103066.84;;;5.06;61.32
75460;BME280;64039;53.060;9.342;2023-04-03T09:22:43;103049.22;;;5.45;58.56
75460;BME280;64039;53.060;9.342;2023-04-03T09:27:46;103046.09;;;5.49;54.18
75460;BME280;64039;53.060;9.342;2023-04-03T09:30:14;103049.50;;;5.60;56.10
75460;BME280;64039;53.060;9.342;2023-04-03T09:32:41;103045.44;;;5.51;57.59
75460;BME280;64039;53.060;9.342;2023-04-03T09:37:47;103045.50;;;5.41;56.24
75460;BME280;64039;53.060;9.342;2023-04-03T09:40:43;103040.28;;;5.51;56.34
75460;BME280;64039;53.060;9.342;2023-04-03T09:43:21;103041.50;;;5.79;56.57
75460;BME280;64039;53.060;9.342;2023-04-03T09:45:47;103044.69;;;5.98;56.11
75460;BME280;64039;53.060;9.342;2023-04-03T09:53:40;103042.31;;;6.24;54.98
75460;BME280;64039;53.060;9.342;2023-04-03T09:58:43;103034.13;;;5.95;56.45
75460;BME280;64039;53.060;9.342;2023-04-03T10:01:29;103026.78;;;5.90;54.19
75460;BME280;64039;53.060;9.342;2023-04-03T10:04:13;103025.75;;;6.10;55.82
75460;BME280;64039;53.060;9.342;2023-04-03T10:06:47;103028.91;;;6.18;57.75
75460;BME280;64039;53.060;9.342;2023-04-03T10:09:23;103030.72;;;6.31;53.74
75460;BME280;64039;53.060;9.342;2023-04-03T10:12:03;103026.59;;;6.44;55.07
75460;BME280;64039;53.060;9.342;2023-04-03T10:14:40;103030.50;;;6.27;56.78
75460;BME280;64039;53.060;9.342;2023-04-03T10:19:36;103020.16;;;5.93;54.29
75460;BME280;64039;53.060;9.342;2023-04-03T10:25:17;103009.03;;;6.52;51.35
75460;BME280;64039;53.060;9.342;2023-04-03T10:27:59;103011.72;;;6.78;53.60
75460;BME280;64039;53.060;9.342;2023-04-03T10:30:51;103003.69;;;6.86;51.94
75460;BME280;64039;53.060;9.342;2023-04-03T10:36:38;103001.50;;;7.16;50.25
75460;BME280;64039;53.060;9.342;2023-04-03T10:48:03;102996.09;;;6.52;51.69
75460;BME280;64039;53.060;9.342;2023-04-03T10:50:51;102988.78;;;6.70;50.26
75460;BME280;64039;53.060;9.342;2023-04-03T10:53:24;102977.03;;;6.87;52.85
75460;BME280;64039;53.060;9.342;2023-04-03T10:56:10;102976.13;;;6.99;53.97
75460;BME280;64039;53.060;9.342;2023-04-03T10:58:43;102970.75;;;7.46;52.03
75460;BME280;64039;53.060;9.342;2023-04-03T11:01:13;102969.47;;;7.92;51.43
75460;BME280;64039;53.060;9.342;2023-04-03T11:03:42;102960.22;;;8.09;51.88
75460;BME280;64039;53.060;9.342;2023-04-03T11:06:12;102961.69;;;8.18;52.28
75460;BME280;64039;53.060;9.342;2023-04-03T11:11:27;102972.84;;;7.27;53.00
75460;BME280;64039;53.060;9.342;2023-04-03T11:14:24;102962.97;;;6.84;53.20
75460;BME280;64039;53.060;9.342;2023-04-03T11:17:01;102965.63;;;7.09;53.97
75460;BME280;64039;53.060;9.342;2023-04-03T11:19:44;102963.72;;;6.95;52.07
75460;BME280;64039;53.060;9.342;2023-04-03T11:22:32;102952.72;;;6.85;52.65
75460;BME280;64039;53.060;9.342;2023-04-03T11:27:44;102955.38;;;6.50;54.68
75460;BME280;64039;53.060;9.342;2023-04-03T11:30:33;102956.59;;;6.43;52.75
75460;BME280;64039;53.060;9.342;2023-04-03T11:33:21;102963.16;;;6.38;53.40
75460;BME280;64039;53.060;9.342;2023-04-03T11:35:57;102956.50;;;6.41;55.00
75460;BME280;64039;53.060;9.342;2023-04-03T11:38:33;102959.09;;;6.53;52.52
75460;BME280;64039;53.060;9.342;2023-04-03T11:41:03;102943.94;;;6.95;51.99
75460;BME280;64039;53.060;9.342;2023-04-03T11:43:31;102942.00;;;7.43;52.72
75460;BME280;64039;53.060;9.342;2023-04-03T11:46:07;102948.38;;;7.74;53.64
75460;BME280;64039;53.060;9.342;2023-04-03T11:53:52;102926.97;;;8.30;47.92
75460;BME280;64039;53.060;9.342;2023-04-03T12:01:56;102915.16;;;8.47;46.00
75460;BME280;64039;53.060;9.342;2023-04-03T12:04:25;102909.22;;;8.91;46.58
75460;BME280;64039;53.060;9.342;2023-04-03T12:06:53;102910.56;;;9.28;46.87
75460;BME280;64039;53.060;9.342;2023-04-03T12:09:33;102894.63;;;9.67;45.73
75460;BME280;64039;53.060;9.342;2023-04-03T12:12:21;102894.09;;;10.02;45.30
75460;BME280;64039;53.060;9.342;2023-04-03T12:14:46;102898.78;;;9.48;46.23
75460;BME280;64039;53.060;9.342;2023-04-03T12:17:22;102900.22;;;9.58;47.71
75460;BME280;64039;53.060;9.342;2023-04-03T12:19:48;102900.16;;;9.13;48.71
75460;BME280;64039;53.060;9.342;2023-04-03T12:22:16;102897.22;;;8.65;47.23
75460;BME280;64039;53.060;9.342;2023-04-03T12:24:44;102894.47;;;8.35;49.78
75460;BME280;64039;53.060;9.342;2023-04-03T12:27:36;102902.38;;;7.96;49.93
75460;BME280;64039;53.060;9.342;2023-04-03T12:30:05;102896.06;;;8.06;50.18
75460;BME280;64039;53.060;9.342;2023-04-03T12:35:34;102889.59;;;7.86;51.44
75460;BME280;64039;53.060;9.342;2023-04-03T12:46:22;102897.78;;;7.15;51.59
75460;BME280;64039;53.060;9.342;2023-04-03T12:48:56;102882.56;;;7.19;51.26
75460;BME280;64039;53.060;9.342;2023-04-03T12:51:39;102874.09;;;7.61;49.08
75460;BME280;64039;53.060;9.342;2023-04-03T12:54:16;102873.31;;;7.89;46.84
75460;BME280;64039;53.060;9.342;2023-04-03T12:56:43;102862.81;;;8.27;47.75
75460;BME280;64039;53.060;9.342;2023-04-03T12:59:28;102863.69;;;8.55;46.71
75460;BME280;64039;53.060;9.342;2023-04-03T13:02:01;102861.41;;;8.32;46.15
75460;BME280;64039;53.060;9.342;2023-04-03T13:04:28;102858.41;;;8.53;49.04
75460;BME280;64039;53.060;9.342;2023-04-03T13:06:54;102852.19;;;8.93;44.09
75460;BME280;64039;53.060;9.342;2023-04-03T13:09:29;102850.63;;;8.81;46.13
75460;BME280;64039;53.060;9.342;2023-04-03T13:11:57;102850.44;;;8.78;46.15
75460;BME280;64039;53.060;9.342;2023-04-03T13:14:25;102852.63;;;9.01;46.60
75460;BME280;64039;53.060;9.342;2023-04-03T13:16:58;102849.69;;;8.94;46.20
75460;BME280;64039;53.060;9.342;2023-04-03T13:19:26;102846.72;;;9.03;46.00
75460;BME280;64039;53.060;9.342;2023-04-03T13:24:46;102838.88;;;9.47;44.66
75460;BME280;64039;53.060;9.342;2023-04-03T13:27:13;102848.03;;;9.25;45.72
75460;BME280;64039;53.060;9.342;2023-04-03T13:29:40;102837.72;;;9.26;44.90
75460;BME280;64039;53.060;9.342;2023-04-03T13:32:06;102839.72;;;9.31;49.75
75460;BME280;64039;53.060;9.342;2023-04-03T13:34:43;102838.72;;;9.28;44.63
75460;BME280;64039;53.060;9.342;2023-04-03T13:37:25;102824.81;;;8.70;44.65
75460;BME280;64039;53.060;9.342;2023-04-03T13:42:30;102812.53;;;8.95;43.98
75460;BME280;64039;53.060;9.342;2023-04-03T13:45:22;102821.03;;;9.53;45.52
75460;BME280;64039;53.060;9.342;2023-04-03T13:47:50;102813.41;;;9.56;45.98
75460;BME280;64039;53.060;9.342;2023-04-03T13:50:24;102816.56;;;9.05;43.92
75460;BME280;64039;53.060;9.342;2023-04-03T13:53:11;102821.22;;;8.68;45.00
75460;BME280;64039;53.060;9.342;2023-04-03T13:58:31;102809.19;;;8.13;46.52
75460;BME280;64039;53.060;9.342;2023-04-03T14:01:20;102811.69;;;8.40;44.56
75460;BME280;64039;53.060;9.342;2023-04-03T14:03:55;102805.41;;;8.78;45.33
75460;BME280;64039;53.060;9.342;2023-04-03T14:06:21;102807.16;;;9.07;45.56
75460;BME280;64039;53.060;9.342;2023-04-03T14:08:48;102792.97;;;9.62;46.21
75460;BME280;64039;53.060;9.342;2023-04-03T14:11:22;102796.63;;;9.81;42.01
75460;BME280;64039;53.060;9.342;2023-04-03T14:13:50;102804.38;;;9.96;44.25
75460;BME280;64039;53.060;9.342;2023-04-03T14:16:21;102790.47;;;9.95;41.11
75460;BME280;64039;53.060;9.342;2023-04-03T14:18:48;102786.41;;;10.15;44.44
75460;BME280;64039;53.060;9.342;2023-04-03T14:21:16;102781.84;;;9.96;42.07
75460;BME280;64039;53.060;9.342;2023-04-03T14:23:41;102784.94;;;9.89;43.86